.
WxDataArchive / Data Records for 2014-06-21
2014-06-20 June 2014 2014-06-22

Data Records for Saturday, 21 June 2014

Time	Temp	Chill	HIndex	Humid	Dewpt	 Wind 	HiWind	WindDir	Rain 	Barom
-----	----	-----	------	-----	-----	------	------	-------	-----	-----
00:00	66.1	66.1	66.1	92	63.7	0	3	112	0.00	29.925 
00:05	66.1	66.1	66.1	92	63.7	0	3	112	0.00	29.925 
00:10	66.0	66.0	66.0	93	63.9	0	1	112	0.00	29.925 
00:15	65.8	65.8	65.8	93	63.7	0	2	112	0.00	29.919 
00:20	65.8	65.8	65.8	93	63.7	0	2	112	0.00	29.919 
00:25	65.6	65.6	65.6	93	63.5	0	1	112	0.00	29.919 
00:30	65.5	65.5	65.5	93	63.4	0	3	112	0.00	29.921 
00:35	65.3	65.3	65.3	93	63.2	0	2	112	0.00	29.921 
00:40	65.2	65.2	65.2	93	63.1	0	3	112	0.00	29.921 
00:45	65.2	65.2	65.2	93	63.1	0	2	112	0.00	29.914 
00:50	65.2	65.2	65.2	93	63.1	0	1	112	0.00	29.914 
00:55	65.2	65.2	65.2	93	63.1	0	0	---	0.00	29.914 
01:00	65.2	65.2	65.2	93	63.1	0	0	---	0.00	29.908 
01:05	65.2	65.2	65.2	93	63.1	0	1	112	0.00	29.908 
01:10	65.3	65.3	65.3	93	63.2	0	0	---	0.00	29.908 
01:15	65.3	65.3	65.3	93	63.2	0	0	---	0.00	29.908 
01:20	65.2	65.2	65.2	93	63.1	0	0	---	0.00	29.908 
01:25	65.2	65.2	65.2	93	63.1	0	1	112	0.00	29.908 
01:30	65.0	65.0	65.0	93	62.9	0	2	112	0.00	29.906 
01:35	65.0	65.0	65.0	93	62.9	0	1	112	0.00	29.906 
01:40	65.0	65.0	65.0	93	62.9	0	2	112	0.00	29.906 
01:45	65.0	65.0	65.0	93	62.9	0	1	112	0.00	29.909 
01:50	65.0	65.0	65.0	93	62.9	0	1	112	0.00	29.909 
01:55	64.8	64.8	64.8	93	62.7	0	1	112	0.00	29.909 
02:00	64.7	64.7	64.7	93	62.6	0	0	---	0.00	29.907 
02:05	64.7	64.7	64.7	93	62.6	0	1	112	0.00	29.907 
02:10	64.7	64.7	64.7	93	62.6	0	0	---	0.00	29.907 
02:15	64.7	64.7	64.7	93	62.6	0	1	112	0.00	29.900 
02:20	64.5	64.5	64.5	93	62.4	0	0	---	0.00	29.900 
02:25	64.5	64.5	64.5	93	62.4	0	0	---	0.00	29.900 
02:30	64.7	64.7	64.7	93	62.6	0	1	112	0.00	29.895 
02:35	64.7	64.7	64.7	93	62.6	0	0	---	0.00	29.895 
02:40	64.7	64.7	64.7	93	62.6	0	1	112	0.00	29.895 
02:45	64.5	64.5	64.5	93	62.4	0	1	112	0.00	29.893 
02:50	64.5	64.5	64.5	93	62.4	0	0	---	0.00	29.893 
02:55	64.5	64.5	64.5	93	62.4	0	0	---	0.00	29.893 
03:00	64.5	64.5	64.5	93	62.4	0	0	---	0.00	29.889 
03:05	64.5	64.5	64.5	93	62.4	0	0	---	0.00	29.889 
03:10	64.5	64.5	64.5	93	62.4	0	0	---	0.00	29.889 
03:15	64.5	64.5	64.5	93	62.4	0	0	---	0.00	29.879 
03:20	64.5	64.5	64.5	93	62.4	0	0	---	0.00	29.879 
03:25	64.5	64.5	64.5	93	62.4	0	0	---	0.00	29.879 
03:30	64.5	64.5	64.5	93	62.4	0	0	---	0.00	29.883 
03:35	64.5	64.5	64.5	93	62.4	0	0	---	0.00	29.883 
03:40	64.5	64.5	64.5	93	62.4	0	0	---	0.00	29.883 
03:45	64.3	64.3	64.3	93	62.2	0	2	112	0.00	29.884 
03:50	64.3	64.3	64.3	93	62.2	0	2	112	0.00	29.884 
03:55	64.3	64.3	64.3	93	62.2	0	0	---	0.00	29.884 
04:00	64.3	64.3	64.3	93	62.2	0	0	---	0.00	29.878 
04:05	64.3	64.3	64.3	93	62.2	0	0	---	0.00	29.878 
04:10	64.3	64.3	64.3	93	62.2	0	0	---	0.00	29.878 
04:15	64.3	64.3	64.3	93	62.2	0	0	---	0.00	29.887 
04:20	64.3	64.3	64.3	93	62.2	0	1	112	0.00	29.887 
04:25	64.3	64.3	64.3	93	62.2	0	1	112	0.00	29.887 
04:30	64.3	64.3	64.3	93	62.2	0	0	---	0.00	29.894 
04:35	64.2	64.2	64.2	93	62.1	0	1	112	0.00	29.894 
04:40	64.0	64.0	64.0	93	61.9	0	2	112	0.00	29.894 
04:45	64.0	64.0	64.0	93	61.9	0	2	112	0.00	29.898 
04:50	63.9	63.9	63.9	93	61.8	0	2	112	0.00	29.898 
04:55	63.9	63.9	63.9	93	61.8	0	1	112	0.00	29.898 
05:00	63.9	63.9	63.9	93	61.8	0	1	112	0.00	29.907 
05:05	63.9	63.9	63.9	93	61.8	0	2	112	0.00	29.907 
05:10	63.9	63.9	63.9	93	61.8	0	1	112	0.00	29.907 
05:15	63.9	63.9	63.9	93	61.8	0	2	112	0.00	29.916 
05:20	63.9	63.9	63.9	93	61.8	0	1	112	0.00	29.916 
05:25	63.7	63.7	63.7	93	61.6	0	2	112	0.00	29.916 
05:30	63.4	63.4	63.4	92	61.0	0	3	112	0.00	29.925 
05:35	63.1	63.1	63.1	93	61.0	0	3	112	0.00	29.925 
05:40	62.9	62.9	62.9	93	60.8	0	2	112	0.00	29.925 
05:45	62.6	62.6	62.6	93	60.5	0	1	112	0.00	29.938 
05:50	62.6	62.6	62.6	93	60.5	0	2	112	0.00	29.938 
05:55	62.4	62.4	62.4	93	60.3	0	0	---	0.00	29.938 
06:00	62.4	62.4	62.4	93	60.3	0	0	---	0.00	29.940 
06:05	62.3	62.3	62.3	93	60.2	0	3	112	0.00	29.940 
06:10	62.1	62.1	62.1	93	60.0	0	0	---	0.00	29.940 
06:15	62.1	62.1	62.1	93	60.0	0	3	225	0.00	29.948 
06:20	62.1	62.1	62.1	93	60.0	0	1	202	0.00	29.948 
06:25	62.0	62.0	62.0	93	59.9	0	2	202	0.00	29.948 
06:30	61.8	61.8	61.8	93	59.8	0	2	202	0.00	29.957 
06:35	61.8	61.8	61.8	93	59.8	0	2	202	0.00	29.957 
06:40	61.8	61.8	61.8	93	59.8	0	1	202	0.00	29.957 
06:45	61.6	61.6	61.6	93	59.6	0	3	158	0.00	29.960 
06:50	61.6	61.6	61.6	93	59.6	1	3	135	0.00	29.960 
06:55	61.6	61.6	61.6	93	59.6	0	3	135	0.00	29.960 
07:00	61.5	61.5	61.5	93	59.5	0	1	135	0.00	29.963 
07:05	61.5	61.5	61.5	93	59.5	0	2	135	0.00	29.963 
07:10	61.5	61.5	61.5	93	59.5	0	1	135	0.00	29.963 
07:15	61.5	61.5	61.5	93	59.5	0	1	135	0.00	29.968 
07:20	61.3	61.3	61.3	93	59.3	0	2	135	0.00	29.968 
07:25	61.3	61.3	61.3	93	59.3	0	1	135	0.00	29.968 
07:30	61.3	61.3	61.3	93	59.3	0	2	135	0.00	29.974 
07:35	61.2	61.2	61.2	93	59.2	0	4	135	0.00	29.974 
07:40	61.2	61.2	61.2	93	59.2	0	2	135	0.00	29.974 
07:45	61.2	61.2	61.2	93	59.2	0	1	135	0.00	29.972 
07:50	61.3	61.3	61.3	93	59.3	0	2	135	0.00	29.972 
07:55	61.3	61.3	61.3	92	59.0	0	0	---	0.00	29.972 
08:00	61.5	61.5	61.5	92	59.2	0	2	135	0.00	29.967 
08:05	61.3	61.3	61.3	92	59.0	0	3	135	0.00	29.967 
08:10	61.5	61.5	61.5	92	59.2	0	1	135	0.00	29.967 
08:15	61.5	61.5	61.5	92	59.2	0	1	135	0.00	29.964 
08:20	61.6	61.6	61.6	92	59.2	0	1	135	0.00	29.964 
08:25	61.6	61.6	61.6	92	59.2	0	2	135	0.00	29.964 
08:30	61.6	61.6	61.6	92	59.2	0	1	135	0.00	29.977 
08:35	61.6	61.6	61.6	92	59.2	0	1	135	0.00	29.977 
08:40	61.8	61.8	61.8	92	59.4	0	3	135	0.00	29.977 
08:45	61.8	61.8	61.8	92	59.4	0	2	135	0.00	29.974 
08:50	61.8	61.8	61.8	92	59.4	0	1	135	0.00	29.974 
08:55	62.0	62.0	62.0	92	59.6	0	2	135	0.00	29.974 
09:00	62.0	62.0	62.0	91	59.3	0	3	135	0.00	29.976 
09:05	62.0	62.0	62.0	92	59.6	1	3	135	0.00	29.976 
09:10	62.1	62.1	62.1	92	59.7	0	1	135	0.00	29.976 
09:15	62.3	62.3	62.3	92	59.9	0	1	135	0.00	29.974 
09:20	62.1	62.1	62.1	91	59.4	0	3	135	0.00	29.974 
09:25	62.1	62.1	62.1	91	59.4	0	2	135	0.00	29.974 
09:30	62.3	62.3	62.3	92	59.9	0	1	135	0.00	29.976 
09:35	62.3	62.3	62.3	91	59.6	0	2	135	0.00	29.976 
09:40	62.3	62.3	62.3	91	59.6	0	2	135	0.00	29.976 
09:45	62.3	62.3	62.3	91	59.6	0	1	135	0.00	29.979 
09:50	62.3	62.3	62.3	91	59.6	0	1	135	0.00	29.979 
09:55	62.4	62.4	62.4	91	59.7	0	2	135	0.00	29.979 
10:00	62.7	62.7	62.7	91	60.0	0	1	135	0.00	29.987 
10:05	62.9	62.9	62.9	91	60.2	0	1	135	0.00	29.987 
10:10	63.2	63.2	63.2	91	60.5	0	0	---	0.00	29.987 
10:15	63.2	63.2	63.2	90	60.2	0	1	135	0.00	29.991 
10:20	63.4	63.4	63.4	90	60.4	0	0	---	0.00	29.991 
10:25	63.4	63.4	63.4	90	60.4	0	2	135	0.00	29.991 
10:30	63.5	63.5	63.5	89	60.2	0	1	135	0.00	29.979 
10:35	63.5	63.5	63.5	89	60.2	0	1	135	0.00	29.979 
10:40	63.7	63.7	63.7	88	60.1	0	0	---	0.00	29.979 
10:45	64.0	64.0	64.0	88	60.4	0	0	---	0.00	29.975 
10:50	64.2	64.2	64.2	88	60.6	0	2	135	0.00	29.975 
10:55	64.2	64.2	64.2	87	60.2	0	2	135	0.00	29.975 
11:00	64.3	64.3	64.3	86	60.0	0	3	135	0.00	29.975 
11:05	64.3	64.3	64.3	86	60.0	0	2	135	0.00	29.975 
11:10	64.7	64.7	64.7	85	60.1	0	2	135	0.00	29.975 
11:15	64.8	64.8	64.8	85	60.2	0	1	135	0.00	29.979 
11:20	65.2	65.2	65.2	85	60.6	0	1	135	0.00	29.979 
11:25	65.3	65.3	65.3	84	60.3	0	2	135	0.00	29.979 
11:30	65.6	65.6	65.6	84	60.6	0	1	135	0.00	29.975 
11:35	66.0	66.0	66.0	83	60.7	0	2	135	0.00	29.975 
11:40	66.0	66.0	66.0	83	60.7	0	3	135	0.00	29.975 
11:45	66.0	66.0	66.0	83	60.7	0	1	135	0.00	29.975 
11:50	66.3	66.3	66.3	84	61.3	0	2	135	0.00	29.975 
11:55	66.3	66.3	66.3	82	60.6	0	2	135	0.00	29.975 
12:00	66.3	66.3	66.3	83	61.0	0	1	135	0.00	29.973 
12:05	66.3	66.3	66.3	82	60.6	0	2	135	0.00	29.973 
12:10	66.3	66.3	66.3	82	60.6	0	2	135	0.00	29.973 
12:15	66.4	66.4	66.4	82	60.7	0	1	135	0.00	29.981 
12:20	66.6	66.6	66.6	83	61.3	0	1	135	0.00	29.981 
12:25	66.8	66.8	66.8	82	61.1	0	2	135	0.00	29.981 
12:30	66.9	66.9	66.9	82	61.2	0	2	135	0.00	29.981 
12:35	67.1	67.1	67.1	82	61.4	0	3	135	0.00	29.981 
12:40	67.3	67.3	67.3	82	61.6	0	2	135	0.00	29.981 
12:45	67.4	67.4	67.4	81	61.4	0	2	135	0.00	29.977 
12:50	67.6	67.6	67.6	82	61.9	0	1	135	0.00	29.977 
12:55	67.9	67.9	67.9	81	61.8	1	2	135	0.00	29.977 
13:00	68.3	68.3	68.3	81	62.2	0	3	135	0.00	29.977 
13:05	68.4	68.4	68.4	80	62.0	0	2	135	0.00	29.977 
13:10	68.8	68.8	68.8	80	62.4	0	1	135	0.00	29.977 
13:15	69.1	69.1	69.1	80	62.7	1	4	0	0.00	29.975 
13:20	69.3	69.3	69.3	79	62.5	1	4	0	0.00	29.975 
13:25	69.8	69.8	69.8	79	63.0	1	3	0	0.00	29.975 
13:30	69.9	69.9	69.9	78	62.7	0	2	0	0.00	29.959 
13:35	70.1	70.1	70.1	76	62.2	0	3	45	0.00	29.959 
13:40	70.9	70.9	70.9	76	62.9	0	2	45	0.00	29.959 
13:45	71.8	71.8	71.8	76	63.8	0	3	68	0.00	29.949 
13:50	72.8	72.8	72.8	75	64.4	0	2	68	0.00	29.949 
13:55	73.5	73.5	73.5	74	64.7	0	2	68	0.00	29.949 
14:00	73.7	73.7	73.7	73	64.5	1	3	68	0.00	29.938 
14:05	73.7	73.7	73.7	72	64.1	0	1	68	0.00	29.938 
14:10	73.5	73.5	73.5	71	63.5	0	1	68	0.00	29.938 
14:15	73.5	73.5	73.5	72	63.9	1	3	68	0.00	29.936 
14:20	73.5	73.5	73.5	73	64.3	0	2	68	0.00	29.936 
14:25	74.2	74.2	74.2	76	66.1	0	2	68	0.00	29.936 
14:30	75.1	75.1	76.4	74	66.2	0	2	68	0.00	29.937 
14:35	74.9	74.9	74.9	69	64.0	1	3	68	0.00	29.937 
14:40	74.9	74.9	74.9	70	64.4	1	3	315	0.00	29.937 
14:45	74.7	74.7	74.7	68	63.4	1	4	315	0.00	29.940 
14:50	74.7	74.7	74.7	69	63.8	1	4	315	0.00	29.940 
14:55	74.9	74.9	74.9	70	64.4	1	3	315	0.00	29.940 
15:00	75.4	75.4	77.1	69	64.5	1	4	315	0.00	29.937 
15:05	76.0	76.0	77.7	70	65.5	0	2	315	0.00	29.937 
15:10	76.3	76.3	78.0	69	65.4	0	2	315	0.00	29.937 
15:15	76.8	76.8	78.6	66	64.6	0	2	315	0.00	29.922 
15:20	77.2	77.2	79.0	66	64.9	0	1	315	0.00	29.922 
15:25	77.4	77.4	79.2	65	64.7	0	2	315	0.00	29.922 
15:30	77.4	77.4	79.2	65	64.7	0	2	315	0.00	29.914 
15:35	77.2	77.2	79.0	65	64.5	0	2	315	0.00	29.914 
15:40	77.2	77.2	79.0	65	64.5	1	3	315	0.00	29.914 
15:45	77.2	77.2	79.0	65	64.5	0	2	315	0.00	29.907 
15:50	77.6	77.6	79.4	64	64.4	0	1	315	0.00	29.907 
15:55	77.9	77.9	79.8	66	65.6	0	2	315	0.00	29.907 
16:00	78.5	78.5	80.4	65	65.7	0	1	315	0.00	29.904 
16:05	79.0	79.0	80.9	63	65.3	0	2	315	0.00	29.904 
16:10	79.6	79.6	81.5	62	65.4	0	1	315	0.00	29.904 
16:15	79.9	79.9	81.9	62	65.7	0	1	315	0.00	29.894 
16:20	80.1	80.1	81.7	58	64.0	0	3	315	0.00	29.894 
16:25	80.1	80.1	81.6	57	63.5	0	2	315	0.00	29.894 
16:30	80.3	80.3	81.9	58	64.2	0	3	315	0.00	29.899 
16:35	80.1	80.1	81.6	57	63.5	0	2	315	0.00	29.899 
16:40	80.1	80.1	81.7	58	64.0	0	3	315	0.00	29.899 
16:45	80.1	80.1	81.8	59	64.5	0	1	315	0.00	29.891 
16:50	79.9	79.9	81.2	55	62.3	0	1	315	0.00	29.891 
16:55	80.3	80.3	82.1	59	64.6	0	1	315	0.00	29.891 
17:00	80.5	80.5	81.7	54	62.3	0	1	315	0.00	29.889 
17:05	80.3	80.3	81.8	57	63.7	0	2	315	0.00	29.889 
17:10	80.5	80.5	82.1	57	63.8	0	2	315	0.00	29.889 
17:15	80.7	80.7	82.2	56	63.5	0	2	315	0.00	29.890 
17:20	80.5	80.5	81.8	55	62.8	0	3	315	0.00	29.890 
17:25	80.3	80.3	81.6	55	62.6	0	2	315	0.00	29.890 
17:30	80.1	80.1	81.4	55	62.4	0	3	315	0.00	29.886 
17:35	79.8	79.8	81.4	58	63.7	1	3	315	0.00	29.886 
17:40	79.8	79.8	81.1	55	62.2	1	3	315	0.00	29.886 
17:45	79.9	79.9	81.1	54	61.7	1	2	315	0.00	29.878 
17:50	80.3	80.3	81.4	53	61.6	0	1	315	0.00	29.878 
17:55	80.3	80.3	81.8	57	63.7	0	1	315	0.00	29.878 
18:00	80.1	80.1	81.3	54	61.9	0	2	315	0.00	29.878 
18:05	79.9	79.9	81.2	55	62.3	0	2	315	0.00	29.878 
18:10	79.8	79.8	81.3	57	63.2	0	1	315	0.00	29.878 
18:15	79.6	79.6	81.3	60	64.5	0	3	90	0.00	29.873 
18:20	79.4	79.4	81.1	60	64.3	0	3	45	0.00	29.873 
18:25	79.2	79.2	81.0	61	64.6	0	2	270	0.00	29.873 
18:30	79.4	79.4	81.1	60	64.3	0	2	270	0.00	29.874 
18:35	79.2	79.2	80.7	58	63.1	0	3	270	0.00	29.874 
18:40	79.2	79.2	80.6	56	62.1	0	2	270	0.00	29.874 
18:45	79.2	79.2	80.7	57	62.6	0	1	270	0.00	29.866 
18:50	79.2	79.2	80.5	55	61.6	0	1	270	0.00	29.866 
18:55	79.4	79.4	80.5	53	60.8	0	2	270	0.00	29.866 
19:00	79.4	79.4	80.4	51	59.7	0	1	270	0.00	29.861 
19:05	79.4	79.4	80.4	51	59.7	0	1	270	0.00	29.861 
19:10	79.2	79.2	80.2	51	59.5	0	0	---	0.00	29.861 
19:15	78.8	78.8	79.7	49	58.0	0	0	---	0.00	29.857 
19:20	78.5	78.5	79.5	48	57.2	0	0	---	0.00	29.857 
19:25	78.3	78.3	79.5	51	58.7	0	0	---	0.00	29.857 
19:30	78.1	78.1	79.5	53	59.6	0	0	---	0.00	29.857 
19:35	77.9	77.9	79.3	52	58.8	0	0	---	0.00	29.857 
19:40	77.7	77.7	79.1	52	58.6	0	0	---	0.00	29.857 
19:45	77.7	77.7	79.1	52	58.6	0	0	---	0.00	29.850 
19:50	77.7	77.7	79.2	54	59.7	0	0	---	0.00	29.850 
19:55	77.6	77.6	79.2	55	60.1	0	1	270	0.00	29.850 
20:00	77.4	77.4	79.1	59	61.9	0	3	270	0.00	29.857 
20:05	77.2	77.2	79.0	61	62.7	0	0	---	0.00	29.857 
20:10	77.0	77.0	78.8	62	63.0	0	1	270	0.00	29.857 
20:15	76.8	76.8	78.6	64	63.7	0	1	270	0.00	29.858 
20:20	76.7	76.7	78.5	64	63.6	0	0	---	0.00	29.858 
20:25	76.5	76.5	78.3	63	62.9	0	0	---	0.00	29.858 
20:30	76.5	76.5	78.3	64	63.4	0	0	---	0.00	29.854 
20:35	76.3	76.3	78.2	64	63.2	0	1	270	0.00	29.854 
20:40	76.1	76.1	78.0	65	63.5	0	0	---	0.00	29.854 
20:45	76.0	76.0	77.9	65	63.4	0	0	---	0.00	29.863 
20:50	75.8	75.8	77.7	65	63.2	0	0	---	0.00	29.863 
20:55	75.4	75.4	77.3	66	63.2	0	0	---	0.00	29.863 
21:00	75.3	75.3	77.2	66	63.1	0	0	---	0.00	29.879 
21:05	75.1	75.1	77.0	67	63.4	0	0	---	0.00	29.879 
21:10	74.9	74.9	74.9	68	63.6	0	0	---	0.00	29.879 
21:15	74.7	74.7	74.7	69	63.8	0	0	---	0.00	29.877 
21:20	74.6	74.6	74.6	70	64.2	0	0	---	0.00	29.877 
21:25	74.2	74.2	74.2	71	64.2	0	0	---	0.00	29.877 
21:30	74.0	74.0	74.0	72	64.4	0	0	---	0.00	29.881 
21:35	73.9	73.9	73.9	72	64.3	0	0	---	0.00	29.881 
21:40	73.7	73.7	73.7	73	64.5	0	0	---	0.00	29.881 
21:45	73.7	73.7	73.7	73	64.5	0	0	---	0.00	29.893 
21:50	73.5	73.5	73.5	73	64.3	0	0	---	0.00	29.893 
21:55	73.3	73.3	73.3	74	64.5	0	0	---	0.00	29.893 
22:00	73.3	73.3	73.3	74	64.5	0	0	---	0.00	29.908 
22:05	73.2	73.2	73.2	75	64.8	0	0	---	0.00	29.908 
22:10	73.2	73.2	73.2	77	65.5	0	0	---	0.00	29.908 
22:15	73.2	73.2	73.2	78	65.9	0	0	---	0.00	29.924 
22:20	73.0	73.0	73.0	80	66.5	0	0	---	0.00	29.924 
22:25	72.8	72.8	72.8	81	66.6	0	0	---	0.00	29.924 
22:30	72.8	72.8	72.8	81	66.6	0	0	---	0.00	29.925 
22:35	72.7	72.7	72.7	82	66.9	0	0	---	0.00	29.925 
22:40	72.5	72.5	72.5	83	67.0	0	0	---	0.01	29.925 
22:45	72.3	72.3	72.3	84	67.2	0	0	---	0.00	29.925 
22:50	72.1	72.1	72.1	85	67.3	0	0	---	0.00	29.925 
22:55	72.0	72.0	72.0	86	67.6	0	0	---	0.01	29.925 
23:00	71.8	71.8	71.8	87	67.7	0	0	---	0.00	29.913 
23:05	71.6	71.6	71.6	87	67.5	0	0	---	0.00	29.913 
23:10	71.5	71.5	71.5	88	67.7	0	0	---	0.00	29.913 
23:15	71.5	71.5	71.5	89	68.1	0	0	---	0.00	29.901 
23:20	71.3	71.3	71.3	90	68.2	0	0	---	0.00	29.901 
23:25	71.1	71.1	71.1	90	68.0	0	0	---	0.00	29.901 
23:30	70.9	70.9	70.9	90	67.8	0	0	---	0.00	29.896 
23:35	70.8	70.8	70.8	90	67.7	0	0	---	0.00	29.896 
23:40	70.8	70.8	70.8	90	67.7	0	0	---	0.00	29.896 
23:45	70.6	70.6	70.6	91	67.8	0	0	---	0.00	29.893 
23:50	70.4	70.4	70.4	91	67.6	0	0	---	0.00	29.893 
23:55	70.4	70.4	70.4	91	67.6	0	0	---	0.00	29.893 

CoCoRaHS
IN-AL-39
A2 Web Hosting
Creative Commons License
GoDaddy
search engine by freefind advanced

loaded 2018-11-17 19:22:19 • last modified 2010-11-18 10:43:29
Privacy PolicyDisclaimer
• wx.awcolley.com is powered by PmWiki v.2002016 •
• all content (unless otherwise noted) © 2018 A W Colley